createdAt,value
2023-03-31T00:00:18.712Z,14.66
2023-03-31T00:02:47.388Z,14.78
2023-03-31T00:05:18.013Z,14.80
2023-03-31T00:07:45.915Z,14.76
2023-03-31T00:10:18.392Z,14.88
2023-03-31T00:12:45.905Z,14.78
2023-03-31T00:15:12.622Z,14.79
2023-03-31T00:17:39.900Z,14.80
2023-03-31T00:20:12.093Z,14.91
2023-03-31T00:22:42.058Z,14.89
2023-03-31T00:25:11.050Z,14.96
2023-03-31T00:27:37.911Z,14.97
2023-03-31T00:30:04.952Z,15.02
2023-03-31T00:32:33.280Z,15.02
2023-03-31T00:35:02.252Z,15.03
2023-03-31T00:37:29.526Z,15.06
2023-03-31T00:39:56.739Z,15.10
2023-03-31T00:42:23.710Z,15.25
2023-03-31T00:45:14.951Z,15.30
2023-03-31T00:47:45.076Z,15.29
2023-03-31T00:50:22.247Z,15.29
2023-03-31T00:52:55.535Z,15.39
2023-03-31T00:55:28.464Z,15.35
2023-03-31T00:57:55.913Z,15.38
2023-03-31T01:00:24.173Z,15.39
2023-03-31T01:02:58.688Z,15.40
2023-03-31T01:05:43.757Z,15.44
2023-03-31T01:08:10.887Z,15.45
2023-03-31T01:10:42.086Z,15.39
2023-03-31T01:13:14.915Z,15.49
2023-03-31T01:15:42.517Z,15.48
2023-03-31T01:18:11.354Z,15.59
2023-03-31T01:21:08.550Z,15.66
2023-03-31T01:23:35.038Z,15.61
2023-03-31T01:26:30.227Z,15.55
2023-03-31T01:29:18.865Z,15.37
2023-03-31T01:32:11.494Z,15.49
2023-03-31T01:35:02.164Z,15.37
2023-03-31T01:37:37.760Z,15.37
2023-03-31T01:40:39.748Z,15.31
2023-03-31T01:43:34.854Z,15.32
2023-03-31T01:46:03.660Z,15.37
2023-03-31T01:48:49.052Z,15.37
2023-03-31T01:51:27.697Z,15.53
2023-03-31T01:54:01.937Z,15.45
2023-03-31T01:56:38.689Z,15.44
2023-03-31T01:59:18.415Z,15.50
2023-03-31T02:02:02.081Z,15.44
2023-03-31T02:04:33.979Z,15.42
2023-03-31T02:07:07.717Z,15.47
2023-03-31T02:09:41.343Z,15.50
2023-03-31T02:12:11.171Z,15.48
2023-03-31T02:14:45.005Z,15.41
2023-03-31T02:17:18.257Z,15.39
2023-03-31T02:19:51.708Z,15.14
2023-03-31T02:22:21.752Z,15.17
2023-03-31T02:24:51.396Z,15.29
2023-03-31T02:27:22.979Z,15.37
2023-03-31T02:29:50.567Z,15.45
2023-03-31T02:32:37.917Z,15.31
2023-03-31T02:35:06.135Z,15.45
2023-03-31T02:37:34.465Z,15.32
2023-03-31T02:40:10.413Z,15.37
2023-03-31T02:42:41.372Z,15.41
2023-03-31T02:45:53.838Z,15.49
2023-03-31T02:48:30.082Z,15.51
2023-03-31T02:51:09.072Z,15.63
2023-03-31T02:54:19.557Z,15.63
2023-03-31T02:57:36.361Z,15.58
2023-03-31T03:00:10.303Z,15.59
2023-03-31T03:03:27.578Z,15.52
2023-03-31T03:06:27.841Z,15.17
2023-03-31T03:09:39.082Z,15.30
2023-03-31T03:12:16.410Z,15.37
2023-03-31T03:15:05.160Z,15.36
2023-03-31T03:17:39.836Z,15.31
2023-03-31T03:20:09.470Z,15.27
2023-03-31T03:22:37.618Z,15.21
2023-03-31T03:25:06.170Z,15.10
2023-03-31T03:27:32.726Z,14.95
2023-03-31T03:29:59.269Z,14.87
2023-03-31T03:32:25.970Z,14.87
2023-03-31T03:34:52.600Z,14.94
2023-03-31T03:37:19.169Z,14.72
2023-03-31T03:39:46.044Z,14.82
2023-03-31T03:42:12.633Z,14.85
2023-03-31T03:44:39.159Z,14.92
2023-03-31T03:47:05.745Z,14.95
2023-03-31T03:49:32.314Z,14.95
2023-03-31T03:51:59.100Z,15.04
2023-03-31T03:54:25.801Z,14.95
2023-03-31T03:56:52.436Z,15.08
2023-03-31T03:59:19.038Z,15.18
2023-03-31T04:01:45.611Z,15.15
2023-03-31T04:04:12.362Z,15.20
2023-03-31T04:06:39.005Z,15.23
2023-03-31T04:09:05.573Z,15.19
2023-03-31T04:11:32.799Z,15.17
2023-03-31T04:13:59.477Z,15.16
2023-03-31T04:16:26.149Z,15.24
2023-03-31T04:18:56.666Z,15.19
2023-03-31T04:21:23.910Z,15.13
2023-03-31T04:23:58.752Z,15.23
2023-03-31T04:26:31.464Z,15.16
2023-03-31T04:29:01.622Z,15.15
2023-03-31T04:31:30.681Z,15.01
2023-03-31T04:34:02.642Z,14.96
2023-03-31T04:36:31.283Z,15.08
2023-03-31T04:38:58.321Z,15.07
2023-03-31T04:41:27.588Z,15.04
2023-03-31T04:43:54.444Z,15.05
2023-03-31T04:46:21.772Z,15.09
2023-03-31T04:48:48.448Z,15.04
2023-03-31T04:51:16.276Z,15.06
2023-03-31T04:53:42.877Z,15.13
2023-03-31T04:56:09.676Z,15.06
2023-03-31T04:58:36.623Z,15.08
2023-03-31T05:01:03.535Z,15.09
2023-03-31T05:03:31.667Z,14.99
2023-03-31T05:05:58.296Z,14.95
2023-03-31T05:08:24.883Z,14.95
2023-03-31T05:10:51.412Z,14.92
2023-03-31T05:13:17.964Z,14.93
2023-03-31T05:15:45.349Z,14.92
2023-03-31T05:18:12.072Z,14.94
2023-03-31T05:20:39.084Z,14.99
2023-03-31T05:23:06.865Z,14.93
2023-03-31T05:25:33.903Z,14.99
2023-03-31T05:28:01.418Z,15.00
2023-03-31T05:30:29.701Z,14.98
2023-03-31T05:32:56.903Z,14.93
2023-03-31T05:35:23.601Z,14.99
2023-03-31T05:37:50.323Z,15.01
2023-03-31T05:40:17.013Z,15.00
2023-03-31T05:42:43.593Z,15.06
2023-03-31T05:45:10.487Z,15.05
2023-03-31T05:47:37.294Z,15.10
2023-03-31T05:50:07.829Z,15.16
2023-03-31T05:52:35.436Z,15.25
2023-03-31T05:55:02.196Z,15.24
2023-03-31T05:57:28.800Z,15.26
2023-03-31T05:59:55.515Z,15.33
2023-03-31T06:02:22.195Z,15.38
2023-03-31T06:04:48.776Z,15.48
2023-03-31T06:07:17.711Z,15.52
2023-03-31T06:09:45.608Z,15.51
2023-03-31T06:12:12.155Z,15.58
2023-03-31T06:14:38.707Z,15.62
2023-03-31T06:17:05.440Z,15.62
2023-03-31T06:19:32.040Z,15.63
2023-03-31T06:21:58.854Z,15.75
2023-03-31T06:24:25.552Z,15.73
2023-03-31T06:26:53.717Z,15.76
2023-03-31T06:29:20.702Z,15.79
2023-03-31T06:31:47.447Z,15.85
2023-03-31T06:34:14.090Z,15.75
2023-03-31T06:36:41.400Z,15.93
2023-03-31T06:39:07.958Z,16.06
2023-03-31T06:41:34.634Z,16.18
2023-03-31T06:44:01.172Z,16.27
2023-03-31T06:46:27.784Z,16.36
2023-03-31T06:48:54.612Z,16.46
2023-03-31T06:51:21.387Z,16.52
2023-03-31T06:53:47.892Z,16.46
2023-03-31T06:56:14.559Z,16.58
2023-03-31T06:58:41.095Z,16.33
2023-03-31T07:01:08.242Z,16.30
2023-03-31T07:03:35.674Z,16.24
2023-03-31T07:06:02.428Z,16.19
2023-03-31T07:08:28.976Z,15.43
2023-03-31T07:10:58.481Z,15.63
2023-03-31T07:13:26.207Z,15.80
2023-03-31T07:15:53.614Z,15.75
2023-03-31T07:18:21.083Z,15.53
2023-03-31T07:20:49.966Z,15.52
2023-03-31T07:23:16.843Z,14.82
2023-03-31T07:25:43.901Z,15.23
2023-03-31T07:28:10.529Z,15.23
2023-03-31T07:30:37.176Z,15.24
2023-03-31T07:33:03.884Z,15.31
2023-03-31T07:35:31.393Z,15.39
2023-03-31T07:37:58.398Z,15.65
2023-03-31T07:40:27.830Z,15.75
2023-03-31T07:42:55.313Z,15.80
2023-03-31T07:45:24.620Z,15.84
2023-03-31T07:47:51.464Z,15.80
2023-03-31T07:50:18.965Z,15.64
2023-03-31T07:52:47.437Z,15.76
2023-03-31T07:55:14.707Z,15.72
2023-03-31T07:57:42.152Z,15.88
2023-03-31T08:00:12.283Z,15.92
2023-03-31T08:02:41.514Z,16.20
2023-03-31T08:05:09.487Z,16.36
2023-03-31T08:07:38.103Z,16.58
2023-03-31T08:10:07.629Z,16.76
2023-03-31T08:12:34.340Z,16.65
2023-03-31T08:15:01.194Z,16.54
2023-03-31T08:17:28.274Z,16.27
2023-03-31T08:19:54.946Z,16.19
2023-03-31T08:22:23.201Z,16.15
2023-03-31T08:24:49.838Z,16.34
2023-03-31T08:27:16.947Z,16.33
2023-03-31T08:29:43.530Z,16.11
2023-03-31T08:32:10.272Z,15.97
2023-03-31T08:34:38.184Z,15.74
2023-03-31T08:37:06.043Z,15.70
2023-03-31T08:39:34.096Z,15.53
2023-03-31T08:42:06.041Z,15.75
2023-03-31T08:44:50.626Z,15.15
2023-03-31T08:47:22.874Z,15.39
2023-03-31T08:49:53.536Z,14.79
2023-03-31T08:52:27.062Z,14.83
2023-03-31T08:54:58.535Z,14.39
2023-03-31T08:57:45.448Z,14.74
2023-03-31T09:00:19.348Z,15.06
2023-03-31T09:02:48.778Z,15.02
2023-03-31T09:05:18.442Z,15.60
2023-03-31T09:08:04.861Z,15.95
2023-03-31T09:10:56.407Z,15.36
2023-03-31T09:13:54.065Z,15.91
2023-03-31T09:16:45.769Z,16.40
2023-03-31T09:19:20.573Z,16.41
2023-03-31T09:21:51.649Z,16.82
2023-03-31T09:24:23.710Z,17.01
2023-03-31T09:26:55.844Z,17.26
2023-03-31T09:29:30.028Z,17.41
2023-03-31T09:32:03.086Z,17.77
2023-03-31T09:34:33.690Z,17.92
2023-03-31T09:37:00.191Z,18.63
2023-03-31T09:39:27.191Z,18.23
2023-03-31T09:41:56.598Z,18.52
2023-03-31T09:44:36.485Z,18.64
2023-03-31T09:47:03.931Z,19.00
2023-03-31T09:49:35.358Z,18.61
2023-03-31T09:54:44.505Z,18.72
2023-03-31T09:57:46.664Z,18.99
2023-03-31T10:00:16.601Z,19.42
2023-03-31T10:02:50.541Z,18.79
2023-03-31T10:05:36.523Z,18.70
2023-03-31T10:08:40.208Z,18.75
2023-03-31T10:11:11.285Z,18.69
2023-03-31T10:13:43.310Z,19.43
2023-03-31T10:16:14.268Z,19.78
2023-03-31T10:18:43.671Z,19.94
2023-03-31T10:21:22.335Z,20.18
2023-03-31T10:23:50.393Z,20.11
2023-03-31T10:26:20.463Z,19.54
2023-03-31T10:28:49.876Z,19.07
2023-03-31T10:31:16.574Z,19.88
2023-03-31T10:33:46.160Z,20.09
2023-03-31T10:36:23.682Z,20.74
2023-03-31T10:38:52.311Z,20.80
2023-03-31T10:41:28.296Z,20.88
2023-03-31T10:43:57.536Z,20.85
2023-03-31T10:46:52.342Z,21.06
2023-03-31T10:49:21.888Z,21.68
2023-03-31T10:51:52.121Z,21.29
2023-03-31T10:54:18.841Z,21.47
2023-03-31T10:56:49.693Z,20.14
2023-03-31T10:59:23.189Z,19.92
2023-03-31T11:02:00.296Z,20.31
2023-03-31T11:04:40.355Z,20.38
2023-03-31T11:07:21.279Z,19.30
2023-03-31T11:09:57.742Z,19.18
2023-03-31T11:12:40.392Z,18.92
2023-03-31T11:15:20.699Z,19.04
2023-03-31T11:17:53.626Z,18.44
2023-03-31T11:20:45.589Z,17.31
2023-03-31T11:23:36.740Z,16.33
2023-03-31T11:26:11.430Z,14.99
2023-03-31T11:28:42.831Z,14.13
2023-03-31T11:31:33.324Z,14.42
2023-03-31T11:34:18.070Z,14.84
2023-03-31T11:37:11.699Z,14.53
2023-03-31T11:39:53.646Z,13.68
2023-03-31T11:42:25.976Z,14.56
2023-03-31T11:45:00.367Z,14.90
2023-03-31T11:47:31.158Z,15.10
2023-03-31T11:50:03.063Z,15.43
2023-03-31T11:52:39.617Z,15.24
2023-03-31T11:55:15.355Z,16.18
2023-03-31T11:57:44.397Z,16.40
2023-03-31T12:00:21.177Z,15.84
2023-03-31T12:03:09.389Z,16.96
2023-03-31T12:05:41.774Z,17.20
2023-03-31T12:08:15.715Z,18.68
2023-03-31T12:10:45.074Z,18.44
2023-03-31T12:13:41.305Z,20.43
2023-03-31T12:16:39.169Z,21.19
2023-03-31T12:19:05.906Z,19.88
2023-03-31T12:21:35.078Z,20.04
2023-03-31T12:24:01.742Z,19.58
2023-03-31T12:26:40.172Z,19.27
2023-03-31T12:29:24.599Z,19.46
2023-03-31T12:31:56.220Z,20.08
2023-03-31T12:34:26.365Z,19.78
2023-03-31T12:37:18.670Z,18.68
2023-03-31T12:40:06.284Z,18.38
2023-03-31T12:42:46.104Z,18.67
2023-03-31T12:45:27.563Z,18.42
2023-03-31T12:48:11.137Z,18.12
2023-03-31T12:51:02.493Z,18.05
2023-03-31T12:53:41.169Z,18.43
2023-03-31T12:56:08.552Z,18.46
2023-03-31T12:58:40.668Z,18.65
2023-03-31T13:01:24.389Z,18.48
2023-03-31T13:03:54.970Z,18.13
2023-03-31T13:06:28.526Z,17.03
2023-03-31T13:09:15.696Z,16.85
2023-03-31T13:11:48.002Z,17.37
2023-03-31T13:14:22.319Z,16.93
2023-03-31T13:16:52.217Z,16.23
2023-03-31T13:19:33.260Z,16.81
2023-03-31T13:22:02.776Z,16.95
2023-03-31T13:24:32.123Z,17.01
2023-03-31T13:27:19.386Z,17.21
2023-03-31T13:29:46.525Z,17.44
2023-03-31T13:32:19.231Z,17.44
2023-03-31T13:35:07.642Z,18.04
2023-03-31T13:38:03.160Z,21.27
2023-03-31T13:40:52.882Z,23.08
2023-03-31T13:44:04.488Z,25.97
2023-03-31T13:46:52.882Z,24.29
2023-03-31T13:49:44.248Z,25.78
2023-03-31T13:52:12.511Z,25.54
2023-03-31T13:55:04.441Z,23.07
2023-03-31T13:58:24.628Z,24.81
2023-03-31T14:01:10.322Z,24.04
2023-03-31T14:04:08.119Z,21.67
2023-03-31T14:06:41.617Z,21.36
2023-03-31T14:09:12.430Z,20.53
2023-03-31T14:11:39.187Z,20.42
2023-03-31T14:14:12.735Z,19.81
2023-03-31T14:16:45.768Z,18.86
2023-03-31T14:19:33.716Z,18.48
2023-03-31T14:22:24.531Z,18.53
2023-03-31T14:25:02.797Z,19.05
2023-03-31T14:28:14.590Z,18.07
2023-03-31T14:30:52.901Z,17.39
2023-03-31T14:33:46.411Z,16.76
2023-03-31T14:36:47.879Z,16.34
2023-03-31T14:39:18.891Z,15.80
2023-03-31T14:41:45.417Z,15.06
2023-03-31T14:44:19.146Z,14.33
2023-03-31T14:46:46.676Z,14.27
2023-03-31T14:49:28.048Z,14.52
2023-03-31T14:51:59.945Z,14.10
2023-03-31T14:54:26.533Z,14.54
2023-03-31T14:56:56.552Z,15.24
2023-03-31T14:59:29.997Z,15.21
2023-03-31T18:26:19.346Z,13.99
2023-03-31T18:28:46.371Z,13.72
2023-03-31T18:31:13.128Z,14.27
2023-03-31T18:33:40.681Z,13.97
2023-03-31T18:36:08.037Z,13.82
2023-03-31T18:38:36.739Z,12.90
2023-03-31T18:41:03.566Z,14.16
2023-03-31T18:43:32.006Z,13.86
2023-03-31T18:46:01.242Z,13.94
2023-03-31T18:48:28.179Z,14.07
2023-03-31T18:50:54.727Z,13.61
2023-03-31T18:53:22.524Z,13.96
2023-03-31T18:55:50.336Z,14.19
2023-03-31T18:58:17.367Z,14.15
2023-03-31T19:00:44.212Z,13.30
2023-03-31T19:03:11.000Z,13.76
2023-03-31T19:05:38.729Z,14.03
2023-03-31T19:08:05.647Z,13.76
2023-03-31T19:10:32.484Z,14.29
2023-03-31T19:12:59.203Z,13.56
2023-03-31T19:15:26.751Z,14.28
2023-03-31T19:17:53.428Z,13.93
2023-03-31T19:20:20.576Z,14.34
2023-03-31T19:22:50.098Z,14.34
2023-03-31T19:25:18.934Z,14.74
2023-03-31T19:27:46.750Z,14.77
2023-03-31T19:30:23.455Z,14.62
2023-03-31T19:32:50.180Z,14.30
2023-03-31T19:35:18.613Z,14.26
2023-03-31T19:37:46.570Z,14.21
2023-03-31T19:40:13.453Z,14.48
2023-03-31T19:42:41.961Z,13.90
2023-03-31T19:45:09.021Z,14.47
2023-03-31T19:47:35.703Z,14.40
2023-03-31T19:50:02.394Z,14.36
2023-03-31T19:52:29.371Z,14.58
2023-03-31T19:54:56.000Z,14.34
2023-03-31T19:57:22.654Z,14.44
2023-03-31T19:59:49.282Z,14.63
2023-03-31T20:02:15.947Z,14.74
2023-03-31T20:04:42.731Z,15.05
2023-03-31T20:07:09.343Z,15.02
2023-03-31T20:09:36.278Z,14.52
2023-03-31T20:12:02.950Z,14.13
2023-03-31T20:14:30.203Z,14.58
2023-03-31T20:17:00.724Z,14.55
2023-03-31T20:19:27.648Z,14.78
2023-03-31T20:21:55.827Z,14.48
2023-03-31T20:24:22.332Z,14.90
2023-03-31T20:26:49.944Z,14.96
2023-03-31T20:29:16.654Z,14.35
2023-03-31T20:31:43.264Z,14.64
2023-03-31T20:34:15.059Z,14.70
2023-03-31T20:36:43.761Z,14.36
2023-03-31T20:39:12.832Z,14.84
2023-03-31T20:41:40.101Z,14.94
2023-03-31T20:44:12.642Z,14.94
2023-03-31T20:46:42.005Z,14.62
2023-03-31T20:49:09.077Z,14.92
2023-03-31T20:51:37.621Z,15.21
2023-03-31T20:54:05.375Z,15.22
2023-03-31T20:56:36.846Z,14.84
2023-03-31T20:59:04.464Z,14.93
2023-03-31T21:01:33.450Z,14.81
2023-03-31T21:04:02.222Z,15.15
2023-03-31T21:06:32.622Z,15.32
2023-03-31T21:08:59.330Z,15.25
2023-03-31T21:11:26.545Z,15.24
2023-03-31T21:13:53.204Z,14.98
2023-03-31T21:16:20.536Z,14.33
2023-03-31T21:18:47.808Z,14.76
2023-03-31T21:21:18.732Z,14.05
2023-03-31T21:23:46.612Z,14.85
2023-03-31T21:26:15.528Z,14.79
2023-03-31T21:28:42.811Z,14.78
2023-03-31T21:31:15.217Z,14.83
2023-03-31T21:33:43.294Z,13.79
2023-03-31T21:36:16.299Z,14.43
2023-03-31T21:38:43.170Z,13.88
2023-03-31T21:41:15.660Z,15.17
2023-03-31T21:43:42.484Z,14.81
2023-03-31T21:46:09.569Z,14.22
2023-03-31T21:48:36.133Z,14.63
2023-03-31T21:51:03.146Z,14.60
2023-03-31T21:53:31.425Z,14.73
2023-03-31T21:55:58.745Z,14.26
2023-03-31T21:58:28.630Z,14.19
2023-03-31T22:00:57.400Z,14.42
2023-03-31T22:03:27.516Z,14.28
2023-03-31T22:05:58.589Z,14.10
2023-03-31T22:08:26.991Z,14.29
2023-03-31T22:10:54.581Z,14.27
2023-03-31T22:13:22.888Z,13.94
2023-03-31T22:15:49.801Z,14.53
2023-03-31T22:18:17.385Z,14.69
2023-03-31T22:20:45.551Z,14.43
2023-03-31T22:23:12.122Z,14.31
2023-03-31T22:25:38.657Z,13.95
2023-03-31T22:28:07.231Z,14.26
2023-03-31T22:30:34.527Z,13.85
2023-03-31T22:33:01.357Z,14.09
2023-03-31T22:35:28.276Z,14.23
2023-03-31T22:37:54.859Z,13.71
2023-03-31T22:40:21.637Z,13.74
2023-03-31T22:42:48.209Z,14.35
2023-03-31T22:45:14.902Z,13.77
2023-03-31T22:47:44.310Z,13.95
2023-03-31T22:50:11.346Z,13.01
2023-03-31T22:52:38.250Z,14.14
2023-03-31T22:55:06.128Z,14.00
2023-03-31T22:57:32.965Z,13.80
2023-03-31T22:59:59.580Z,13.80
2023-03-31T23:02:26.285Z,13.70
2023-03-31T23:04:52.839Z,13.78
2023-03-31T23:07:21.740Z,13.35
2023-03-31T23:09:48.848Z,13.22
2023-03-31T23:12:15.474Z,13.28
2023-03-31T23:14:42.096Z,13.27
2023-03-31T23:17:08.633Z,13.73
2023-03-31T23:19:35.407Z,13.16
2023-03-31T23:22:02.549Z,12.75
2023-03-31T23:24:29.922Z,13.54
2023-03-31T23:26:56.497Z,13.27
2023-03-31T23:29:23.291Z,13.75
2023-03-31T23:31:49.948Z,13.95
2023-03-31T23:34:16.558Z,13.82
2023-03-31T23:36:43.419Z,13.73
2023-03-31T23:39:10.537Z,12.84
2023-03-31T23:41:37.072Z,13.95
2023-03-31T23:44:04.537Z,13.10
2023-03-31T23:46:31.922Z,12.55
2023-03-31T23:48:59.425Z,12.77
2023-03-31T23:51:26.125Z,12.86
2023-03-31T23:53:52.834Z,13.00
2023-03-31T23:56:19.785Z,12.71
2023-03-31T23:58:47.014Z,12.84
